createdAt,value
2019-04-03T00:00:58.518Z,94525.47
2019-04-03T00:02:02.649Z,94529.70
2019-04-03T00:03:07.062Z,94530.39
2019-04-03T00:04:10.503Z,94533.56
2019-04-03T00:05:14.002Z,94523.41
2019-04-03T00:06:17.431Z,94524.48
2019-04-03T00:07:20.865Z,94526.11
2019-04-03T00:08:25.149Z,94526.43
2019-04-03T00:09:28.578Z,94520.08
2019-04-03T00:10:32.069Z,94528.01
2019-04-03T00:11:35.870Z,94522.15
2019-04-03T00:12:40.989Z,94515.85
2019-04-03T00:13:44.698Z,94520.83
2019-04-03T00:14:48.125Z,94522.89
2019-04-03T00:15:51.619Z,94522.20
2019-04-03T00:16:55.132Z,94529.64
2019-04-03T00:17:58.552Z,94522.98
2019-04-03T00:19:02.067Z,94522.41
2019-04-03T00:20:09.977Z,94519.81
2019-04-03T00:21:13.398Z,94522.77
2019-04-03T00:22:16.822Z,94518.80
2019-04-03T00:23:20.628Z,94517.66
2019-04-03T00:24:25.423Z,94521.89
2019-04-03T00:25:28.940Z,94521.19
2019-04-03T00:26:32.359Z,94516.95
2019-04-03T00:27:35.855Z,94518.55
2019-04-03T00:28:39.376Z,94521.19
2019-04-03T00:29:42.806Z,94516.73
2019-04-03T00:30:46.419Z,94525.11
2019-04-03T00:31:49.842Z,94517.34
2019-04-03T00:32:54.017Z,94518.80
2019-04-03T00:33:57.641Z,94516.02
2019-04-03T00:35:01.066Z,94521.31
2019-04-03T00:36:04.572Z,94519.24
2019-04-03T00:37:07.996Z,94517.03
2019-04-03T00:38:11.418Z,94509.81
2019-04-03T00:39:14.868Z,94512.41
2019-04-03T00:40:18.291Z,94512.27
2019-04-03T00:41:22.712Z,94509.67
2019-04-03T00:42:26.883Z,94517.48
2019-04-03T00:43:30.304Z,94513.06
2019-04-03T00:44:33.757Z,94507.41
2019-04-03T00:45:37.189Z,94509.97
2019-04-03T00:46:40.618Z,94518.37
2019-04-03T00:47:44.082Z,94519.26
2019-04-03T00:48:47.537Z,94518.89
2019-04-03T00:49:50.959Z,94521.16
2019-04-03T00:50:56.369Z,94520.32
2019-04-03T00:51:59.552Z,94519.80
2019-04-03T00:53:03.085Z,94520.27
2019-04-03T00:54:06.527Z,94517.22
2019-04-03T00:55:10.111Z,94521.91
2019-04-03T00:56:13.578Z,94510.95
2019-04-03T00:57:17.013Z,94513.11
2019-04-03T00:58:38.553Z,94512.48
2019-04-03T00:59:42.007Z,94508.31
2019-04-03T01:00:45.446Z,94504.46
2019-04-03T01:01:48.945Z,94511.22
2019-04-03T01:02:52.441Z,94507.31
2019-04-03T01:03:56.847Z,94505.84
2019-04-03T01:05:01.059Z,94507.73
2019-04-03T01:06:04.815Z,94504.17
2019-04-03T01:07:08.242Z,94508.68
2019-04-03T01:08:11.725Z,94502.45
2019-04-03T01:09:15.114Z,94502.45
2019-04-03T01:10:18.635Z,94494.66
2019-04-03T01:11:22.082Z,94493.83
2019-04-03T01:12:25.519Z,94489.70
2019-04-03T01:13:30.988Z,94485.96
2019-04-03T01:14:34.094Z,94482.89
2019-04-03T01:15:37.661Z,94481.19
2019-04-03T01:16:41.065Z,94470.98
2019-04-03T01:17:44.495Z,94470.90
2019-04-03T01:18:47.922Z,94475.32
2019-04-03T01:19:51.349Z,94466.13
2019-04-03T01:20:54.874Z,94467.01
2019-04-03T01:21:58.300Z,94461.00
2019-04-03T01:23:01.762Z,94464.66
2019-04-03T01:24:07.486Z,94468.45
2019-04-03T01:25:10.630Z,94468.08
2019-04-03T01:26:14.153Z,94466.70
2019-04-03T01:27:17.579Z,94465.33
2019-04-03T01:28:21.010Z,94465.33
2019-04-03T01:29:24.508Z,94466.83
2019-04-03T01:30:27.939Z,94466.02
2019-04-03T01:31:31.581Z,94467.03
2019-04-03T01:32:34.991Z,94467.34
2019-04-03T01:33:38.430Z,94460.73
2019-04-03T01:34:41.865Z,94465.97
2019-04-03T01:35:47.132Z,94467.81
2019-04-03T01:36:50.545Z,94456.86
2019-04-03T01:37:53.991Z,94456.55
2019-04-03T01:38:57.430Z,94448.31
2019-04-03T01:40:00.866Z,94452.95
2019-04-03T01:41:04.368Z,94446.84
2019-04-03T01:42:07.870Z,94442.65
2019-04-03T01:43:11.310Z,94440.92
2019-04-03T01:44:14.745Z,94437.16
2019-04-03T01:45:18.178Z,94434.00
2019-04-03T01:46:21.607Z,94437.13
2019-04-03T01:47:27.514Z,94437.06
2019-04-03T01:48:30.238Z,94432.94
2019-04-03T01:49:33.648Z,94431.25
2019-04-03T01:50:37.083Z,94425.97
2019-04-03T01:51:40.514Z,94428.49
2019-04-03T01:52:43.970Z,94433.03
2019-04-03T01:53:47.407Z,94431.68
2019-04-03T01:54:50.831Z,94434.78
2019-04-03T01:55:54.341Z,94441.91
2019-04-03T01:56:58.018Z,94440.44
2019-04-03T01:58:01.477Z,94438.19
2019-04-03T01:59:06.583Z,94437.87
2019-04-03T02:00:10.367Z,94436.61
2019-04-03T02:01:13.800Z,94437.61
2019-04-03T02:02:17.239Z,94446.80
2019-04-03T02:03:20.823Z,94445.42
2019-04-03T02:04:24.373Z,94442.89
2019-04-03T02:05:27.843Z,94436.34
2019-04-03T02:06:31.277Z,94436.50
2019-04-03T02:07:34.703Z,94440.08
2019-04-03T02:08:38.228Z,94429.80
2019-04-03T02:09:41.727Z,94436.72
2019-04-03T02:10:45.199Z,94436.55
2019-04-03T02:11:49.317Z,94435.33
2019-04-03T02:12:53.206Z,94434.16
2019-04-03T02:13:56.791Z,94439.61
2019-04-03T02:15:00.187Z,94434.84
2019-04-03T02:16:03.746Z,94437.66
2019-04-03T02:17:07.195Z,94442.87
2019-04-03T02:18:10.670Z,94441.06
2019-04-03T02:19:14.259Z,94439.59
2019-04-03T02:20:17.817Z,94442.06
2019-04-03T02:21:21.247Z,94436.98
2019-04-03T02:22:25.247Z,94435.02
2019-04-03T02:23:30.341Z,94438.87
2019-04-03T02:24:33.851Z,94436.50
2019-04-03T02:25:37.348Z,94433.23
2019-04-03T02:26:40.777Z,94429.61
2019-04-03T02:27:44.283Z,94434.27
2019-04-03T02:28:47.715Z,94430.24
2019-04-03T02:29:51.168Z,94425.64
2019-04-03T02:30:54.648Z,94431.19
2019-04-03T02:31:58.176Z,94424.01
2019-04-03T02:33:01.667Z,94423.64
2019-04-03T02:34:05.193Z,94424.21
2019-04-03T02:35:08.995Z,94427.11
2019-04-03T02:36:13.111Z,94427.42
2019-04-03T02:37:17.562Z,94428.09
2019-04-03T02:38:22.627Z,94429.44
2019-04-03T02:39:27.658Z,94424.49
2019-04-03T02:40:32.512Z,94421.05
2019-04-03T02:41:37.435Z,94420.62
2019-04-03T02:42:42.417Z,94417.78
2019-04-03T02:43:47.364Z,94428.03
2019-04-03T02:44:51.906Z,94424.21
2019-04-03T02:45:56.811Z,94420.73
2019-04-03T02:47:01.482Z,94423.70
2019-04-03T02:48:06.248Z,94427.11
2019-04-03T02:49:11.076Z,94415.97
2019-04-03T02:50:17.678Z,94416.17
2019-04-03T02:51:21.137Z,94415.54
2019-04-03T02:52:25.643Z,94407.98
2019-04-03T02:53:31.166Z,94414.77
2019-04-03T02:54:38.136Z,94411.00
2019-04-03T02:55:41.601Z,94408.80
2019-04-03T02:56:46.028Z,94405.41
2019-04-03T02:57:50.366Z,94402.45
2019-04-03T02:58:55.062Z,94405.09
2019-04-03T03:00:00.334Z,94405.41
2019-04-03T03:01:07.014Z,94397.65
2019-04-03T03:02:11.681Z,94398.48
2019-04-03T03:03:17.283Z,94392.51
2019-04-03T03:04:21.958Z,94395.78
2019-04-03T03:05:28.106Z,94395.69
2019-04-03T03:06:33.004Z,94397.73
2019-04-03T03:07:36.947Z,94401.86
2019-04-03T03:08:42.665Z,94403.93
2019-04-03T03:09:47.735Z,94399.91
2019-04-03T03:10:52.933Z,94396.16
2019-04-03T03:11:57.288Z,94402.88
2019-04-03T03:13:02.393Z,94399.17
2019-04-03T03:14:07.258Z,94402.65
2019-04-03T03:15:12.676Z,94403.88
2019-04-03T03:16:18.141Z,94399.49
2019-04-03T03:17:23.508Z,94397.48
2019-04-03T03:18:28.325Z,94397.16
2019-04-03T03:19:33.793Z,94396.99
2019-04-03T03:20:39.515Z,94394.03
2019-04-03T03:21:44.711Z,94399.92
2019-04-03T03:22:50.565Z,94396.25
2019-04-03T03:23:56.252Z,94400.78
2019-04-03T03:25:00.945Z,94396.50
2019-04-03T03:26:05.775Z,94400.69
2019-04-03T03:27:10.341Z,94399.14
2019-04-03T03:28:15.312Z,94398.89
2019-04-03T03:29:25.260Z,94395.30
2019-04-03T03:30:41.890Z,94395.42
2019-04-03T03:31:58.779Z,94394.61
2019-04-03T03:32:37.719Z,94388.23
2019-04-03T03:33:42.291Z,94387.92
2019-04-03T03:34:55.932Z,94386.60
2019-04-03T03:35:52.154Z,94386.06
2019-04-03T03:37:00.678Z,94381.95
2019-04-03T03:38:06.315Z,94383.96
2019-04-03T03:39:10.435Z,94383.27
2019-04-03T03:40:16.594Z,94382.91
2019-04-03T03:41:22.058Z,94380.27
2019-04-03T03:42:24.951Z,94382.73
2019-04-03T03:43:28.834Z,94383.73
2019-04-03T03:44:32.785Z,94375.61
2019-04-03T03:45:37.161Z,94374.80
2019-04-03T03:46:41.644Z,94378.34
2019-04-03T03:47:45.753Z,94376.93
2019-04-03T03:48:49.605Z,94376.19
2019-04-03T03:49:54.236Z,94378.31
2019-04-03T03:50:58.657Z,94377.70
2019-04-03T03:52:03.995Z,94374.12
2019-04-03T03:53:11.826Z,94380.52
2019-04-03T03:54:16.696Z,94381.72
2019-04-03T03:55:23.151Z,94381.59
2019-04-03T03:56:24.603Z,94383.54
2019-04-03T03:57:28.258Z,94384.54
2019-04-03T03:58:32.382Z,94385.55
2019-04-03T03:59:36.887Z,94382.52
2019-04-03T04:00:40.814Z,94383.58
2019-04-03T04:01:44.431Z,94386.38
2019-04-03T04:02:47.985Z,94384.49
2019-04-03T04:03:53.082Z,94383.36
2019-04-03T04:04:57.011Z,94388.64
2019-04-03T04:06:00.558Z,94389.95
2019-04-03T04:07:04.775Z,94386.74
2019-04-03T04:08:10.600Z,94387.35
2019-04-03T04:09:17.174Z,94387.69
2019-04-03T04:10:18.947Z,94381.30
2019-04-03T04:11:22.553Z,94391.34
2019-04-03T04:12:26.507Z,94384.76
2019-04-03T04:13:30.282Z,94390.85
2019-04-03T04:14:33.846Z,94388.89
2019-04-03T04:15:37.941Z,94384.64
2019-04-03T04:16:41.971Z,94388.02
2019-04-03T04:17:49.001Z,94391.66
2019-04-03T04:18:51.135Z,94384.49
2019-04-03T04:19:54.675Z,94383.00
2019-04-03T04:20:58.339Z,94390.19
2019-04-03T04:22:01.957Z,94383.09
2019-04-03T04:23:05.648Z,94384.84
2019-04-03T04:24:09.092Z,94386.63
2019-04-03T04:25:12.659Z,94383.50
2019-04-03T04:26:16.238Z,94387.12
2019-04-03T04:27:19.997Z,94381.20
2019-04-03T04:28:23.353Z,94379.06
2019-04-03T04:29:26.933Z,94381.95
2019-04-03T04:30:30.808Z,94380.36
2019-04-03T04:31:34.233Z,94377.60
2019-04-03T04:32:37.860Z,94376.43
2019-04-03T04:33:41.268Z,94378.72
2019-04-03T04:34:44.823Z,94382.84
2019-04-03T04:35:51.360Z,94374.44
2019-04-03T04:36:55.328Z,94375.19
2019-04-03T04:37:58.677Z,94372.80
2019-04-03T04:39:02.131Z,94377.17
2019-04-03T04:40:05.803Z,94375.11
2019-04-03T04:41:09.226Z,94370.34
2019-04-03T04:42:12.660Z,94375.11
2019-04-03T04:43:16.175Z,94374.77
2019-04-03T04:44:19.609Z,94374.77
2019-04-03T04:45:23.282Z,94372.33
2019-04-03T04:46:26.719Z,94375.37
2019-04-03T04:47:30.221Z,94368.37
2019-04-03T04:48:33.735Z,94374.06
2019-04-03T04:49:37.212Z,94370.70
2019-04-03T04:50:40.824Z,94368.56
2019-04-03T04:51:44.202Z,94367.25
2019-04-03T04:52:47.773Z,94372.09
2019-04-03T04:53:51.196Z,94375.30
2019-04-03T04:54:54.581Z,94369.22
2019-04-03T04:55:58.007Z,94373.23
2019-04-03T04:57:01.453Z,94380.67
2019-04-03T04:58:05.325Z,94372.84
2019-04-03T04:59:09.000Z,94372.83
2019-04-03T05:00:13.771Z,94371.91
2019-04-03T05:01:18.307Z,94372.12
2019-04-03T05:02:21.753Z,94377.60
2019-04-03T05:03:25.286Z,94378.09
2019-04-03T05:04:28.924Z,94378.09
2019-04-03T05:05:32.663Z,94382.54
2019-04-03T05:06:36.449Z,94387.56
2019-04-03T05:07:40.303Z,94379.23
2019-04-03T05:08:43.690Z,94382.72
2019-04-03T05:09:47.122Z,94383.20
2019-04-03T05:10:50.621Z,94385.92
2019-04-03T05:11:54.071Z,94385.84
2019-04-03T05:12:57.510Z,94386.69
2019-04-03T05:14:01.253Z,94387.02
2019-04-03T05:15:06.093Z,94389.64
2019-04-03T05:16:09.582Z,94388.48
2019-04-03T05:17:13.103Z,94388.97
2019-04-03T05:18:16.640Z,94376.98
2019-04-03T05:19:20.109Z,94379.84
2019-04-03T05:20:23.670Z,94383.30
2019-04-03T05:21:27.146Z,94379.76
2019-04-03T05:22:30.639Z,94380.25
2019-04-03T05:23:34.301Z,94379.77
2019-04-03T05:24:37.850Z,94378.20
2019-04-03T05:25:41.550Z,94378.45
2019-04-03T05:26:45.189Z,94375.81
2019-04-03T05:27:48.616Z,94376.14
2019-04-03T05:28:57.166Z,94375.48
2019-04-03T05:29:57.297Z,94371.69
2019-04-03T05:31:01.006Z,94375.95
2019-04-03T05:32:04.541Z,94373.56
2019-04-03T05:33:10.648Z,94372.83
2019-04-03T05:34:13.748Z,94369.70
2019-04-03T05:35:17.521Z,94370.39
2019-04-03T05:36:20.972Z,94366.03
2019-04-03T05:37:24.571Z,94368.98
2019-04-03T05:38:27.987Z,94365.44
2019-04-03T05:39:31.501Z,94362.00
2019-04-03T05:40:34.921Z,94366.76
2019-04-03T05:41:38.347Z,94363.89
2019-04-03T05:42:41.775Z,94366.77
2019-04-03T05:43:45.227Z,94365.12
2019-04-03T05:44:48.663Z,94367.48
2019-04-03T05:45:52.166Z,94364.13
2019-04-03T05:46:55.607Z,94366.34
2019-04-03T05:47:59.041Z,94370.70
2019-04-03T05:49:02.493Z,94365.23
2019-04-03T05:50:06.763Z,94369.66
2019-04-03T05:51:10.137Z,94367.72
2019-04-03T05:52:13.847Z,94368.61
2019-04-03T05:53:17.501Z,94358.32
2019-04-03T05:54:21.121Z,94355.03
2019-04-03T05:55:24.547Z,94360.63
2019-04-03T05:56:28.042Z,94364.57
2019-04-03T05:57:31.483Z,94359.06
2019-04-03T05:58:34.979Z,94356.85
2019-04-03T05:59:38.427Z,94361.44
2019-04-03T06:00:42.590Z,94360.69
2019-04-03T06:01:47.134Z,94361.58
2019-04-03T06:02:52.669Z,94365.28
2019-04-03T06:03:55.866Z,94354.61
2019-04-03T06:04:59.791Z,94355.53
2019-04-03T06:06:03.343Z,94354.91
2019-04-03T06:07:06.782Z,94353.34
2019-04-03T06:08:10.226Z,94349.22
2019-04-03T06:09:13.840Z,94356.22
2019-04-03T06:10:17.348Z,94355.97
2019-04-03T06:11:21.406Z,94348.23
2019-04-03T06:12:24.999Z,94346.92
2019-04-03T06:13:28.647Z,94340.76
2019-04-03T06:14:32.229Z,94342.08
2019-04-03T06:15:35.679Z,94338.92
2019-04-03T06:16:39.131Z,94340.00
2019-04-03T06:17:42.576Z,94341.49
2019-04-03T06:18:47.473Z,94333.41
2019-04-03T06:19:51.261Z,94339.19
2019-04-03T06:20:54.948Z,94337.77
2019-04-03T06:21:58.371Z,94338.09
2019-04-03T06:23:02.118Z,94339.94
2019-04-03T06:24:05.615Z,94338.29
2019-04-03T06:25:13.455Z,94338.37
2019-04-03T06:26:14.454Z,94340.66
2019-04-03T06:27:19.670Z,94344.59
2019-04-03T06:28:23.430Z,94343.20
2019-04-03T06:29:27.020Z,94346.67
2019-04-03T06:30:30.436Z,94346.58
2019-04-03T06:31:33.869Z,94340.22
2019-04-03T06:32:37.622Z,94336.59
2019-04-03T06:33:41.132Z,94337.41
2019-04-03T06:34:44.528Z,94332.32
2019-04-03T06:35:47.960Z,94333.53
2019-04-03T06:36:51.637Z,94330.08
2019-04-03T06:37:55.082Z,94330.41
2019-04-03T06:38:58.535Z,94327.20
2019-04-03T06:40:02.874Z,94327.84
2019-04-03T06:41:08.791Z,94329.87
2019-04-03T06:42:13.310Z,94330.09
2019-04-03T06:43:17.904Z,94328.70
2019-04-03T06:44:22.649Z,94327.95
2019-04-03T06:45:27.098Z,94334.94
2019-04-03T06:46:30.632Z,94329.73
2019-04-03T06:47:34.070Z,94335.39
2019-04-03T06:48:37.533Z,94334.86
2019-04-03T06:49:41.139Z,94327.50
2019-04-03T06:50:44.780Z,94326.08
2019-04-03T06:51:49.441Z,94326.00
2019-04-03T06:52:53.742Z,94324.17
2019-04-03T06:53:59.163Z,94320.92
2019-04-03T06:55:03.333Z,94321.84
2019-04-03T06:56:08.653Z,94316.72
2019-04-03T06:57:13.863Z,94316.72
2019-04-03T06:58:17.605Z,94315.23
2019-04-03T06:59:21.042Z,94320.88
2019-04-03T07:00:24.580Z,94314.11
2019-04-03T07:01:28.117Z,94308.48
2019-04-03T07:02:32.408Z,94316.30
2019-04-03T07:03:35.891Z,94315.78
2019-04-03T07:04:39.327Z,94315.09
2019-04-03T07:05:42.955Z,94316.72
2019-04-03T07:06:46.545Z,94315.72
2019-04-03T07:07:49.982Z,94312.64
2019-04-03T07:08:53.516Z,94311.93
2019-04-03T07:09:57.310Z,94313.70
2019-04-03T07:11:00.773Z,94314.88
2019-04-03T07:12:04.300Z,94315.28
2019-04-03T07:13:07.794Z,94317.98
2019-04-03T07:14:11.233Z,94309.48
2019-04-03T07:15:14.828Z,94313.19
2019-04-03T07:16:18.267Z,94319.09
2019-04-03T07:17:21.804Z,94313.50
2019-04-03T07:18:25.231Z,94310.59
2019-04-03T07:19:28.883Z,94318.41
2019-04-03T07:20:32.364Z,94311.37
2019-04-03T07:21:35.873Z,94313.03
2019-04-03T07:22:39.302Z,94311.11
2019-04-03T07:23:42.883Z,94310.34
2019-04-03T07:24:46.406Z,94313.02
2019-04-03T07:25:49.954Z,94309.23
2019-04-03T07:26:53.352Z,94316.83
2019-04-03T07:27:56.849Z,94310.98
2019-04-03T07:29:00.307Z,94312.67
2019-04-03T07:30:05.214Z,94310.03
2019-04-03T07:31:08.669Z,94312.81
2019-04-03T07:32:12.511Z,94309.33
2019-04-03T07:33:16.026Z,94316.56
2019-04-03T07:34:19.548Z,94306.63
2019-04-03T07:35:23.131Z,94305.47
2019-04-03T07:36:26.571Z,94304.30
2019-04-03T07:37:29.998Z,94303.59
2019-04-03T07:38:33.434Z,94308.56
2019-04-03T07:39:36.867Z,94311.38
2019-04-03T07:40:40.318Z,94306.50
2019-04-03T07:41:43.819Z,94307.94
2019-04-03T07:42:47.329Z,94306.57
2019-04-03T07:43:50.760Z,94314.23
2019-04-03T07:44:54.206Z,94311.06
2019-04-03T07:45:57.653Z,94311.33
2019-04-03T07:47:03.262Z,94316.75
2019-04-03T07:48:07.066Z,94312.53
2019-04-03T07:49:10.561Z,94317.59
2019-04-03T07:50:14.551Z,94315.00
2019-04-03T07:51:18.302Z,94308.59
2019-04-03T07:52:21.709Z,94305.25
2019-04-03T07:53:25.227Z,94304.09
2019-04-03T07:54:29.014Z,94307.00
2019-04-03T07:55:32.465Z,94305.73
2019-04-03T07:56:35.897Z,94307.75
2019-04-03T07:57:41.361Z,94309.91
2019-04-03T07:58:44.515Z,94302.90
2019-04-03T07:59:47.995Z,94301.72
2019-04-03T08:00:51.525Z,94294.66
2019-04-03T08:01:55.190Z,94297.30
2019-04-03T08:02:58.587Z,94305.42
2019-04-03T08:04:02.097Z,94303.09
2019-04-03T08:05:07.347Z,94302.86
2019-04-03T08:06:11.127Z,94306.25
2019-04-03T08:07:14.580Z,94302.73
2019-04-03T08:08:18.086Z,94300.27
2019-04-03T08:09:21.551Z,94299.87
2019-04-03T08:10:25.295Z,94302.70
2019-04-03T08:11:28.746Z,94300.05
2019-04-03T08:12:34.553Z,94296.96
2019-04-03T08:13:38.423Z,94295.91
2019-04-03T08:14:42.069Z,94302.70
2019-04-03T08:15:45.690Z,94296.08
2019-04-03T08:16:49.136Z,94295.59
2019-04-03T08:17:52.587Z,94292.11
2019-04-03T08:18:56.017Z,94289.56
2019-04-03T08:19:59.458Z,94292.83
2019-04-03T08:21:02.909Z,94291.55
2019-04-03T08:22:06.409Z,94289.81
2019-04-03T08:23:09.897Z,94293.78
2019-04-03T08:24:13.322Z,94289.25
2019-04-03T08:25:16.758Z,94283.25
2019-04-03T08:26:20.393Z,94279.69
2019-04-03T08:27:24.430Z,94279.55
2019-04-03T08:28:30.140Z,94275.72
2019-04-03T08:29:37.190Z,94272.38
2019-04-03T08:30:39.658Z,94272.11
2019-04-03T08:31:47.825Z,94270.37
2019-04-03T08:32:49.614Z,94272.94
2019-04-03T08:33:53.032Z,94274.41
2019-04-03T08:34:56.690Z,94268.88
2019-04-03T08:36:00.098Z,94270.98
2019-04-03T08:37:04.107Z,94268.67
2019-04-03T08:38:07.548Z,94267.50
2019-04-03T08:39:11.054Z,94267.53
2019-04-03T08:40:14.733Z,94270.52
2019-04-03T08:41:18.181Z,94263.80
2019-04-03T08:42:21.617Z,94266.14
2019-04-03T08:43:25.069Z,94268.23
2019-04-03T08:44:28.579Z,94262.23
2019-04-03T08:45:32.014Z,94260.30
2019-04-03T08:46:35.464Z,94258.98
2019-04-03T08:47:39.303Z,94257.69
2019-04-03T08:48:43.001Z,94259.31
2019-04-03T08:49:46.485Z,94256.56
2019-04-03T08:50:49.888Z,94256.70
2019-04-03T08:51:53.515Z,94257.88
2019-04-03T08:52:56.927Z,94253.80
2019-04-03T08:54:00.368Z,94260.58
2019-04-03T08:55:04.919Z,94250.16
2019-04-03T08:56:08.370Z,94252.11
2019-04-03T08:57:11.891Z,94254.63
2019-04-03T08:58:15.407Z,94252.16
2019-04-03T08:59:18.892Z,94251.00
2019-04-03T09:00:22.546Z,94255.30
2019-04-03T09:01:26.043Z,94244.61
2019-04-03T09:02:29.625Z,94244.76
2019-04-03T09:03:33.052Z,94248.58
2019-04-03T09:04:36.523Z,94240.80
2019-04-03T09:05:39.995Z,94235.64
2019-04-03T09:06:43.484Z,94243.59
2019-04-03T09:07:46.939Z,94241.70
2019-04-03T09:08:50.381Z,94245.24
2019-04-03T09:09:53.814Z,94242.02
2019-04-03T09:10:57.274Z,94239.08
2019-04-03T09:12:00.786Z,94240.45
2019-04-03T09:13:16.276Z,94232.34
2019-04-03T09:14:09.513Z,94230.73
2019-04-03T09:15:13.508Z,94231.72
2019-04-03T09:16:16.920Z,94226.56
2019-04-03T09:17:20.431Z,94229.34
2019-04-03T09:18:23.976Z,94227.44
2019-04-03T09:19:27.469Z,94225.38
2019-04-03T09:20:31.044Z,94227.16
2019-04-03T09:21:34.477Z,94221.41
2019-04-03T09:22:37.994Z,94222.48
2019-04-03T09:23:41.540Z,94223.23
2019-04-03T09:24:45.053Z,94219.93
2019-04-03T09:25:48.545Z,94215.50
2019-04-03T09:26:52.007Z,94212.73
2019-04-03T09:27:55.449Z,94210.38
2019-04-03T09:28:58.926Z,94212.44
2019-04-03T09:30:02.542Z,94209.92
2019-04-03T09:31:06.182Z,94204.93
2019-04-03T09:32:09.678Z,94212.30
2019-04-03T09:33:13.436Z,94203.73
2019-04-03T09:34:16.884Z,94205.50
2019-04-03T09:35:20.393Z,94198.28
2019-04-03T09:36:23.915Z,94198.73
2019-04-03T09:37:27.347Z,94195.21
2019-04-03T09:38:30.952Z,94200.72
2019-04-03T09:39:34.437Z,94193.95
2019-04-03T09:40:38.303Z,94189.84
2019-04-03T09:41:41.756Z,94191.76
2019-04-03T09:42:45.187Z,94187.04
2019-04-03T09:43:48.981Z,94182.04
2019-04-03T09:44:53.672Z,94182.92
2019-04-03T09:46:00.288Z,94182.18
2019-04-03T09:47:03.787Z,94181.47
2019-04-03T09:48:07.713Z,94178.95
2019-04-03T09:49:11.260Z,94169.52
2019-04-03T09:50:17.207Z,94175.72
2019-04-03T09:51:22.810Z,94171.74
2019-04-03T09:52:38.273Z,94162.89
2019-04-03T09:53:31.020Z,94170.55
2019-04-03T09:54:34.481Z,94164.38
2019-04-03T09:55:38.289Z,94160.38
2019-04-03T09:56:57.191Z,94163.74
2019-04-03T09:57:46.958Z,94163.45
2019-04-03T09:58:50.397Z,94156.12
2019-04-03T09:59:53.855Z,94152.73
2019-04-03T10:00:57.422Z,94151.23
2019-04-03T10:02:01.887Z,94146.38
2019-04-03T10:03:06.039Z,94136.06
2019-04-03T10:04:09.534Z,94133.11
2019-04-03T10:05:14.576Z,94142.06
2019-04-03T10:06:18.021Z,94131.02
2019-04-03T10:07:21.820Z,94133.52
2019-04-03T10:08:25.302Z,94125.54
2019-04-03T10:09:28.750Z,94130.27
2019-04-03T10:10:32.539Z,94129.51
2019-04-03T10:11:38.423Z,94127.88
2019-04-03T10:12:43.024Z,94126.10
2019-04-03T10:13:46.931Z,94129.04
2019-04-03T10:14:50.482Z,94123.29
2019-04-03T10:15:53.912Z,94120.35
2019-04-03T10:16:57.691Z,94121.65
2019-04-03T10:18:01.197Z,94115.00
2019-04-03T10:19:04.882Z,94117.08
2019-04-03T10:20:09.453Z,94109.14
2019-04-03T10:21:12.892Z,94118.56
2019-04-03T10:22:16.320Z,94119.27
2019-04-03T10:23:20.069Z,94110.88
2019-04-03T10:24:23.462Z,94113.64
2019-04-03T10:25:26.916Z,94110.50
2019-04-03T10:26:31.345Z,94103.73
2019-04-03T10:27:35.714Z,94111.69
2019-04-03T10:28:42.022Z,94105.89
2019-04-03T10:29:44.309Z,94100.66
2019-04-03T10:30:47.801Z,94102.42
2019-04-03T10:31:51.225Z,94088.87
2019-04-03T10:32:54.779Z,94093.08
2019-04-03T10:33:58.171Z,94089.66
2019-04-03T10:35:01.614Z,94087.28
2019-04-03T10:36:05.290Z,94085.48
2019-04-03T10:37:08.786Z,94088.45
2019-04-03T10:38:12.288Z,94081.22
2019-04-03T10:39:16.290Z,94082.65
2019-04-03T10:40:20.103Z,94073.50
2019-04-03T10:41:24.023Z,94073.46
2019-04-03T10:42:27.405Z,94071.97
2019-04-03T10:43:32.436Z,94073.94
2019-04-03T10:44:35.865Z,94069.13
2019-04-03T10:45:39.347Z,94070.42
2019-04-03T10:46:42.848Z,94055.59
2019-04-03T10:47:46.284Z,94063.06
2019-04-03T10:48:49.783Z,94062.64
2019-04-03T10:49:53.263Z,94065.38
2019-04-03T10:50:56.700Z,94058.10
2019-04-03T10:52:00.198Z,94058.44
2019-04-03T10:53:03.639Z,94056.83
2019-04-03T10:54:07.134Z,94053.74
2019-04-03T10:55:11.237Z,94050.49
2019-04-03T10:56:14.644Z,94053.42
2019-04-03T10:57:18.086Z,94047.47
2019-04-03T10:58:21.638Z,94046.09
2019-04-03T10:59:25.145Z,94045.98
2019-04-03T11:00:29.423Z,94040.45
2019-04-03T11:01:33.436Z,94041.84
2019-04-03T11:02:36.967Z,94037.53
2019-04-03T11:03:40.663Z,94030.78
2019-04-03T11:04:44.161Z,94029.54
2019-04-03T11:05:47.903Z,94023.25
2019-04-03T11:06:51.331Z,94020.14
2019-04-03T11:07:54.823Z,94027.66
2019-04-03T11:08:58.319Z,94014.23
2019-04-03T11:10:01.774Z,94020.08
2019-04-03T11:11:05.257Z,94017.83
2019-04-03T11:12:10.189Z,94010.48
2019-04-03T11:13:14.386Z,94012.47
2019-04-03T11:14:17.927Z,94011.08
2019-04-03T11:15:21.437Z,94013.41
2019-04-03T11:16:25.297Z,94006.89
2019-04-03T11:17:28.777Z,93999.61
2019-04-03T11:18:32.478Z,94001.02
2019-04-03T11:19:37.421Z,94001.30
2019-04-03T11:20:41.510Z,94000.08
2019-04-03T11:21:45.524Z,94004.89
2019-04-03T11:22:49.076Z,94000.90
2019-04-03T11:23:52.639Z,93995.23
2019-04-03T11:24:56.306Z,93990.20
2019-04-03T11:25:59.878Z,93986.87
2019-04-03T11:27:03.713Z,93985.86
2019-04-03T11:28:07.279Z,93979.45
2019-04-03T11:29:10.976Z,93984.92
2019-04-03T11:30:19.928Z,93983.69
2019-04-03T11:31:27.431Z,93977.80
2019-04-03T11:32:27.272Z,93976.06
2019-04-03T11:33:30.815Z,93985.12
2019-04-03T11:34:34.187Z,93973.10
2019-04-03T11:35:37.731Z,93973.47
2019-04-03T11:36:41.724Z,93977.03
2019-04-03T11:37:45.143Z,93962.74
2019-04-03T11:38:48.885Z,93966.17
2019-04-03T11:40:02.352Z,93968.65
2019-04-03T11:40:57.531Z,93970.29
2019-04-03T11:42:00.999Z,93964.39
2019-04-03T11:43:04.570Z,93961.97
2019-04-03T11:44:08.313Z,93962.83
2019-04-03T11:45:12.663Z,93959.36
2019-04-03T11:46:16.080Z,93952.34
2019-04-03T11:47:19.584Z,93949.82
2019-04-03T11:48:24.405Z,93949.43
2019-04-03T11:49:28.453Z,93944.95
2019-04-03T11:50:32.089Z,93946.81
2019-04-03T11:51:36.180Z,93933.58
2019-04-03T11:52:39.986Z,93938.56
2019-04-03T11:53:45.486Z,93933.23
2019-04-03T11:54:48.605Z,93933.13
2019-04-03T11:55:52.196Z,93933.97
2019-04-03T11:56:56.624Z,93932.02
2019-04-03T11:58:00.699Z,93931.03
2019-04-03T11:59:04.198Z,93929.11
2019-04-03T12:00:11.779Z,93926.67
2019-04-03T12:01:16.816Z,93925.94
2019-04-03T12:02:21.134Z,93929.86
2019-04-03T12:03:24.580Z,93923.05
2019-04-03T12:04:28.116Z,93922.06
2019-04-03T12:05:31.661Z,93917.53
2019-04-03T12:06:35.339Z,93918.02
2019-04-03T12:07:38.781Z,93913.00
2019-04-03T12:08:44.575Z,93917.72
2019-04-03T12:09:47.441Z,93909.69
2019-04-03T12:10:51.155Z,93911.03
2019-04-03T12:11:55.512Z,93904.80
2019-04-03T12:12:59.275Z,93897.97
2019-04-03T12:14:02.814Z,93904.39
2019-04-03T12:15:09.711Z,93895.92
2019-04-03T12:16:13.170Z,93901.95
2019-04-03T12:17:16.901Z,93889.64
2019-04-03T12:18:20.706Z,93894.50
2019-04-03T12:19:24.331Z,93896.15
2019-04-03T12:20:27.823Z,93878.66
2019-04-03T12:21:31.341Z,93888.23
2019-04-03T12:22:35.159Z,93871.86
2019-04-03T12:23:39.428Z,93879.03
2019-04-03T12:24:43.229Z,93868.25
2019-04-03T12:25:46.925Z,93863.66
2019-04-03T12:26:51.502Z,93856.11
2019-04-03T12:27:55.713Z,93860.80
2019-04-03T12:28:59.407Z,93857.80
2019-04-03T12:30:03.191Z,93856.02
2019-04-03T12:31:06.636Z,93839.78